sensor_id;sensor_type;location;lat;lon;timestamp;pressure;altitude;pressure_sealevel;temperature;humidity
27958;BME280;15295;42.658;23.374;2022-12-18T00:01:40;95300.47;;;12.33;56.35
27958;BME280;15295;42.658;23.374;2022-12-18T00:04:06;95306.75;;;12.37;56.07
27958;BME280;15295;42.658;23.374;2022-12-18T00:06:34;95323.56;;;12.32;55.81
27958;BME280;15295;42.658;23.374;2022-12-18T00:09:00;95328.28;;;12.25;55.81
27958;BME280;15295;42.658;23.374;2022-12-18T00:11:36;95319.63;;;12.05;55.49
27958;BME280;15295;42.658;23.374;2022-12-18T00:14:01;95300.78;;;11.79;56.04
27958;BME280;15295;42.658;23.374;2022-12-18T00:16:29;95274.09;;;11.62;56.00
27958;BME280;15295;42.658;23.374;2022-12-18T00:18:59;95316.03;;;11.80;55.82
27958;BME280;15295;42.658;23.374;2022-12-18T00:21:30;95268.19;;;11.46;56.13
27958;BME280;15295;42.658;23.374;2022-12-18T00:23:59;95265.41;;;11.39;55.92
27958;BME280;15295;42.658;23.374;2022-12-18T00:26:28;95279.50;;;11.44;56.13
27958;BME280;15295;42.658;23.374;2022-12-18T00:28:54;95330.84;;;11.72;56.20
27958;BME280;15295;42.658;23.374;2022-12-18T00:31:25;95322.56;;;11.58;55.90
27958;BME280;15295;42.658;23.374;2022-12-18T00:33:54;95291.19;;;11.38;55.87
27958;BME280;15295;42.658;23.374;2022-12-18T00:36:22;95333.56;;;11.65;55.99
27958;BME280;15295;42.658;23.374;2022-12-18T00:38:48;95328.00;;;11.51;56.11
27958;BME280;15295;42.658;23.374;2022-12-18T00:41:17;95353.56;;;11.73;56.10
27958;BME280;15295;42.658;23.374;2022-12-18T00:44:07;95360.19;;;11.68;55.97
27958;BME280;15295;42.658;23.374;2022-12-18T00:46:44;95339.34;;;11.49;56.19
27958;BME280;15295;42.658;23.374;2022-12-18T00:49:16;95348.34;;;11.50;56.10
27958;BME280;15295;42.658;23.374;2022-12-18T00:51:41;95341.25;;;11.42;56.19
27958;BME280;15295;42.658;23.374;2022-12-18T00:54:07;95313.00;;;11.17;55.70
27958;BME280;15295;42.658;23.374;2022-12-18T00:56:37;95316.53;;;11.17;55.36
27958;BME280;15295;42.658;23.374;2022-12-18T00:59:04;95312.59;;;11.15;55.29
27958;BME280;15295;42.658;23.374;2022-12-18T01:01:29;95356.13;;;11.41;55.33
27958;BME280;15295;42.658;23.374;2022-12-18T01:04:04;95336.06;;;11.23;55.69
27958;BME280;15295;42.658;23.374;2022-12-18T01:06:54;95330.22;;;11.21;55.72
27958;BME280;15295;42.658;23.374;2022-12-18T01:09:26;95341.16;;;11.21;55.46
27958;BME280;15295;42.658;23.374;2022-12-18T01:11:51;95312.09;;;10.95;55.53
27958;BME280;15295;42.658;23.374;2022-12-18T01:14:19;95375.63;;;11.36;55.64
27958;BME280;15295;42.658;23.374;2022-12-18T01:16:48;95363.81;;;11.21;55.69
27958;BME280;15295;42.658;23.374;2022-12-18T01:21:59;95351.28;;;11.10;55.66
27958;BME280;15295;42.658;23.374;2022-12-18T01:24:25;95344.22;;;11.09;55.29
27958;BME280;15295;42.658;23.374;2022-12-18T01:26:51;95322.22;;;10.88;55.19
27958;BME280;15295;42.658;23.374;2022-12-18T01:29:17;95352.75;;;10.97;54.87
27958;BME280;15295;42.658;23.374;2022-12-18T01:34:17;95373.03;;;10.92;55.28
27958;BME280;15295;42.658;23.374;2022-12-18T01:36:47;95334.13;;;10.62;54.95
27958;BME280;15295;42.658;23.374;2022-12-18T01:39:15;95322.72;;;10.49;55.16
27958;BME280;15295;42.658;23.374;2022-12-18T01:41:41;95360.34;;;10.70;55.56
27958;BME280;15295;42.658;23.374;2022-12-18T01:47:36;95355.44;;;10.42;55.93
27958;BME280;15295;42.658;23.374;2022-12-18T01:50:20;95405.66;;;10.71;56.07
27958;BME280;15295;42.658;23.374;2022-12-18T01:55:30;95341.09;;;10.12;56.28
27958;BME280;15295;42.658;23.374;2022-12-18T01:58:06;95396.13;;;10.54;56.28
27958;BME280;15295;42.658;23.374;2022-12-18T02:00:52;95407.44;;;10.53;56.17
27958;BME280;15295;42.658;23.374;2022-12-18T02:03:41;95355.97;;;10.18;55.98
27958;BME280;15295;42.658;23.374;2022-12-18T02:06:12;95411.72;;;10.50;56.14
27958;BME280;15295;42.658;23.374;2022-12-18T02:14:22;95435.25;;;10.58;56.15
27958;BME280;15295;42.658;23.374;2022-12-18T02:17:12;95444.59;;;10.57;56.03
27958;BME280;15295;42.658;23.374;2022-12-18T02:26:20;95441.53;;;10.66;55.74
27958;BME280;15295;42.658;23.374;2022-12-18T02:29:06;95447.72;;;10.59;55.79
27958;BME280;15295;42.658;23.374;2022-12-18T02:31:44;95443.06;;;10.60;55.99
27958;BME280;15295;42.658;23.374;2022-12-18T02:34:24;95442.25;;;10.59;55.82
27958;BME280;15295;42.658;23.374;2022-12-18T02:36:53;95447.00;;;10.66;55.73
27958;BME280;15295;42.658;23.374;2022-12-18T02:39:26;95450.94;;;10.68;55.17
27958;BME280;15295;42.658;23.374;2022-12-18T02:41:54;95458.75;;;10.70;55.54
27958;BME280;15295;42.658;23.374;2022-12-18T02:44:21;95450.16;;;10.68;55.28
27958;BME280;15295;42.658;23.374;2022-12-18T02:46:51;95441.53;;;10.62;55.32
27958;BME280;15295;42.658;23.374;2022-12-18T02:49:39;95445.88;;;10.70;55.40
27958;BME280;15295;42.658;23.374;2022-12-18T02:52:28;95455.22;;;10.69;55.04
27958;BME280;15295;42.658;23.374;2022-12-18T02:57:54;95470.41;;;10.63;55.00
27958;BME280;15295;42.658;23.374;2022-12-18T03:00:42;95464.09;;;10.56;55.01
27958;BME280;15295;42.658;23.374;2022-12-18T03:03:16;95464.88;;;10.56;55.03
27958;BME280;15295;42.658;23.374;2022-12-18T03:05:52;95477.72;;;10.52;55.17
27958;BME280;15295;42.658;23.374;2022-12-18T03:10:58;95431.59;;;10.11;55.51
27958;BME280;15295;42.658;23.374;2022-12-18T03:13:33;95435.00;;;10.04;55.44
27958;BME280;15295;42.658;23.374;2022-12-18T03:16:06;95420.78;;;9.88;55.54
27958;BME280;15295;42.658;23.374;2022-12-18T03:19:06;95416.88;;;9.89;55.61
27958;BME280;15295;42.658;23.374;2022-12-18T03:21:42;95417.97;;;9.81;55.72
27958;BME280;15295;42.658;23.374;2022-12-18T03:26:58;95457.28;;;10.06;55.78
27958;BME280;15295;42.658;23.374;2022-12-18T03:29:42;95497.03;;;10.33;55.85
27958;BME280;15295;42.658;23.374;2022-12-18T03:32:17;95485.97;;;10.23;55.18
27958;BME280;15295;42.658;23.374;2022-12-18T03:34:48;95475.06;;;10.23;55.24
27958;BME280;15295;42.658;23.374;2022-12-18T03:37:16;95437.63;;;9.93;55.23
27958;BME280;15295;42.658;23.374;2022-12-18T03:39:41;95452.84;;;9.94;55.10
27958;BME280;15295;42.658;23.374;2022-12-18T03:42:15;95507.53;;;10.31;54.99
27958;BME280;15295;42.658;23.374;2022-12-18T03:44:58;95520.22;;;10.46;54.56
27958;BME280;15295;42.658;23.374;2022-12-18T03:47:57;95458.25;;;9.91;54.56
27958;BME280;15295;42.658;23.374;2022-12-18T03:50:39;95529.78;;;10.30;54.63
27958;BME280;15295;42.658;23.374;2022-12-18T03:53:23;95540.19;;;10.21;54.46
27958;BME280;15295;42.658;23.374;2022-12-18T03:55:51;95478.19;;;9.65;54.25
27958;BME280;15295;42.658;23.374;2022-12-18T03:58:20;95472.78;;;9.69;54.49
27958;BME280;15295;42.658;23.374;2022-12-18T04:00:49;95463.75;;;9.65;54.67
27958;BME280;15295;42.658;23.374;2022-12-18T04:03:21;95515.50;;;9.84;54.97
27958;BME280;15295;42.658;23.374;2022-12-18T04:08:14;95509.25;;;9.83;55.13
27958;BME280;15295;42.658;23.374;2022-12-18T04:10:40;95536.34;;;9.95;55.12
27958;BME280;15295;42.658;23.374;2022-12-18T04:13:08;95482.78;;;9.58;55.07
27958;BME280;15295;42.658;23.374;2022-12-18T04:15:37;95483.94;;;9.57;55.12
27958;BME280;15295;42.658;23.374;2022-12-18T04:18:04;95489.06;;;9.62;54.97
27958;BME280;15295;42.658;23.374;2022-12-18T04:20:29;95505.63;;;9.76;54.86
27958;BME280;15295;42.658;23.374;2022-12-18T04:22:55;95531.88;;;9.84;54.74
27958;BME280;15295;42.658;23.374;2022-12-18T04:25:20;95538.91;;;9.85;54.66
27958;BME280;15295;42.658;23.374;2022-12-18T04:27:50;95520.75;;;9.70;54.30
27958;BME280;15295;42.658;23.374;2022-12-18T04:30:20;95561.63;;;9.92;53.97
27958;BME280;15295;42.658;23.374;2022-12-18T04:32:45;95563.53;;;9.88;54.37
27958;BME280;15295;42.658;23.374;2022-12-18T04:35:10;95558.34;;;9.80;54.27
27958;BME280;15295;42.658;23.374;2022-12-18T04:37:37;95574.09;;;9.90;54.22
27958;BME280;15295;42.658;23.374;2022-12-18T04:40:04;95561.06;;;9.80;54.03
27958;BME280;15295;42.658;23.374;2022-12-18T04:42:30;95563.03;;;9.79;54.02
27958;BME280;15295;42.658;23.374;2022-12-18T04:44:55;95551.59;;;9.70;53.79
27958;BME280;15295;42.658;23.374;2022-12-18T04:47:21;95555.41;;;9.66;53.78
27958;BME280;15295;42.658;23.374;2022-12-18T04:49:46;95565.16;;;9.67;53.58
27958;BME280;15295;42.658;23.374;2022-12-18T04:52:11;95589.84;;;9.74;53.84
27958;BME280;15295;42.658;23.374;2022-12-18T04:54:37;95582.44;;;9.74;53.75
27958;BME280;15295;42.658;23.374;2022-12-18T04:57:02;95577.28;;;9.69;53.70
27958;BME280;15295;42.658;23.374;2022-12-18T04:59:28;95587.47;;;9.72;53.29
27958;BME280;15295;42.658;23.374;2022-12-18T05:02:03;95601.50;;;9.71;52.55
27958;BME280;15295;42.658;23.374;2022-12-18T05:04:29;95606.44;;;9.62;53.21
27958;BME280;15295;42.658;23.374;2022-12-18T05:06:54;95602.47;;;9.59;52.74
27958;BME280;15295;42.658;23.374;2022-12-18T05:09:19;95585.09;;;9.45;52.61
27958;BME280;15295;42.658;23.374;2022-12-18T05:11:45;95594.84;;;9.46;52.47
27958;BME280;15295;42.658;23.374;2022-12-18T05:14:11;95600.44;;;9.53;52.46
27958;BME280;15295;42.658;23.374;2022-12-18T05:16:39;95601.50;;;9.48;52.37
27958;BME280;15295;42.658;23.374;2022-12-18T05:19:10;95626.56;;;9.54;52.48
27958;BME280;15295;42.658;23.374;2022-12-18T05:21:36;95586.25;;;9.21;52.73
27958;BME280;15295;42.658;23.374;2022-12-18T05:24:02;95612.56;;;9.32;53.08
27958;BME280;15295;42.658;23.374;2022-12-18T05:26:30;95562.63;;;9.06;52.70
27958;BME280;15295;42.658;23.374;2022-12-18T05:28:56;95573.59;;;9.09;52.77
27958;BME280;15295;42.658;23.374;2022-12-18T05:31:22;95637.72;;;9.45;52.54
27958;BME280;15295;42.658;23.374;2022-12-18T05:33:50;95608.00;;;9.17;52.93
27958;BME280;15295;42.658;23.374;2022-12-18T05:36:23;95590.97;;;9.01;52.79
27958;BME280;15295;42.658;23.374;2022-12-18T05:38:55;95620.50;;;9.18;52.57
27958;BME280;15295;42.658;23.374;2022-12-18T05:41:35;95620.13;;;9.20;52.48
27958;BME280;15295;42.658;23.374;2022-12-18T05:44:02;95595.88;;;8.92;52.63
27958;BME280;15295;42.658;23.374;2022-12-18T05:46:27;95577.38;;;8.82;52.62
27958;BME280;15295;42.658;23.374;2022-12-18T05:48:54;95588.00;;;8.87;52.56
27958;BME280;15295;42.658;23.374;2022-12-18T05:51:21;95608.78;;;8.95;52.77
27958;BME280;15295;42.658;23.374;2022-12-18T05:53:47;95630.94;;;9.13;52.60
27958;BME280;15295;42.658;23.374;2022-12-18T05:56:16;95623.41;;;9.06;52.41
27958;BME280;15295;42.658;23.374;2022-12-18T05:58:51;95645.19;;;9.25;52.50
27958;BME280;15295;42.658;23.374;2022-12-18T06:01:25;95622.56;;;9.02;52.23
27958;BME280;15295;42.658;23.374;2022-12-18T06:03:55;95628.16;;;8.90;52.29
27958;BME280;15295;42.658;23.374;2022-12-18T06:06:33;95627.66;;;8.85;52.28
27958;BME280;15295;42.658;23.374;2022-12-18T06:09:03;95677.34;;;9.16;52.34
27958;BME280;15295;42.658;23.374;2022-12-18T06:11:36;95608.63;;;8.66;51.90
27958;BME280;15295;42.658;23.374;2022-12-18T06:14:03;95636.97;;;8.84;52.07
27958;BME280;15295;42.658;23.374;2022-12-18T06:16:30;95647.22;;;8.90;52.13
27958;BME280;15295;42.658;23.374;2022-12-18T06:19:05;95633.41;;;8.80;52.43
27958;BME280;15295;42.658;23.374;2022-12-18T06:21:34;95665.44;;;9.05;52.09
27958;BME280;15295;42.658;23.374;2022-12-18T06:24:00;95648.09;;;8.94;52.09
27958;BME280;15295;42.658;23.374;2022-12-18T06:26:25;95646.38;;;8.86;52.10
27958;BME280;15295;42.658;23.374;2022-12-18T06:28:51;95666.84;;;8.96;51.96
27958;BME280;15295;42.658;23.374;2022-12-18T06:31:17;95710.50;;;9.18;52.31
27958;BME280;15295;42.658;23.374;2022-12-18T06:33:42;95651.84;;;8.86;52.00
27958;BME280;15295;42.658;23.374;2022-12-18T06:36:12;95664.44;;;8.94;51.93
27958;BME280;15295;42.658;23.374;2022-12-18T06:38:39;95699.75;;;9.06;52.31
27958;BME280;15295;42.658;23.374;2022-12-18T06:41:12;95715.78;;;9.30;51.89
27958;BME280;15295;42.658;23.374;2022-12-18T06:43:38;95723.13;;;9.26;52.17
27958;BME280;15295;42.658;23.374;2022-12-18T06:46:04;95716.88;;;9.26;52.00
27958;BME280;15295;42.658;23.374;2022-12-18T06:48:30;95711.06;;;9.27;51.95
27958;BME280;15295;42.658;23.374;2022-12-18T06:50:55;95721.38;;;9.38;51.70
27958;BME280;15295;42.658;23.374;2022-12-18T06:53:21;95702.03;;;9.23;51.48
27958;BME280;15295;42.658;23.374;2022-12-18T06:55:46;95681.09;;;9.08;51.33
27958;BME280;15295;42.658;23.374;2022-12-18T06:58:12;95725.56;;;9.31;51.33
27958;BME280;15295;42.658;23.374;2022-12-18T07:00:37;95731.06;;;9.35;51.03
27958;BME280;15295;42.658;23.374;2022-12-18T07:03:03;95725.50;;;9.28;50.92
27958;BME280;15295;42.658;23.374;2022-12-18T07:05:28;95742.50;;;9.41;50.80
27958;BME280;15295;42.658;23.374;2022-12-18T07:07:53;95745.44;;;9.32;50.67
27958;BME280;15295;42.658;23.374;2022-12-18T07:10:19;95735.19;;;9.25;50.55
27958;BME280;15295;42.658;23.374;2022-12-18T07:12:44;95737.31;;;9.36;50.48
27958;BME280;15295;42.658;23.374;2022-12-18T07:15:10;95740.47;;;9.38;49.99
27958;BME280;15295;42.658;23.374;2022-12-18T07:17:36;95741.66;;;9.37;50.28
27958;BME280;15295;42.658;23.374;2022-12-18T07:20:07;95741.19;;;9.34;50.41
27958;BME280;15295;42.658;23.374;2022-12-18T07:22:32;95744.22;;;9.29;50.50
27958;BME280;15295;42.658;23.374;2022-12-18T07:24:58;95740.84;;;9.36;50.47
27958;BME280;15295;42.658;23.374;2022-12-18T07:27:24;95758.88;;;9.41;50.67
27958;BME280;15295;42.658;23.374;2022-12-18T07:29:49;95743.34;;;9.45;50.62
27958;BME280;15295;42.658;23.374;2022-12-18T07:32:15;95751.44;;;9.41;50.17
27958;BME280;15295;42.658;23.374;2022-12-18T07:34:40;95755.06;;;9.45;50.34
27958;BME280;15295;42.658;23.374;2022-12-18T07:37:05;95752.56;;;9.37;50.41
27958;BME280;15295;42.658;23.374;2022-12-18T07:39:31;95768.25;;;9.43;50.34
27958;BME280;15295;42.658;23.374;2022-12-18T07:41:56;95763.81;;;9.35;50.34
27958;BME280;15295;42.658;23.374;2022-12-18T07:44:40;95773.66;;;9.40;50.36
27958;BME280;15295;42.658;23.374;2022-12-18T07:47:06;95778.25;;;9.36;50.42
27958;BME280;15295;42.658;23.374;2022-12-18T07:49:31;95766.53;;;9.35;50.34
27958;BME280;15295;42.658;23.374;2022-12-18T07:51:57;95772.59;;;9.25;50.43
27958;BME280;15295;42.658;23.374;2022-12-18T07:54:24;95768.41;;;9.31;50.29
27958;BME280;15295;42.658;23.374;2022-12-18T07:56:50;95751.63;;;9.10;50.44
27958;BME280;15295;42.658;23.374;2022-12-18T07:59:16;95766.06;;;9.10;50.61
27958;BME280;15295;42.658;23.374;2022-12-18T08:01:42;95784.50;;;9.17;50.67
27958;BME280;15295;42.658;23.374;2022-12-18T08:04:07;95785.63;;;9.16;50.71
27958;BME280;15295;42.658;23.374;2022-12-18T08:06:33;95806.09;;;9.25;50.75
27958;BME280;15295;42.658;23.374;2022-12-18T08:08:59;95799.00;;;9.21;51.04
27958;BME280;15295;42.658;23.374;2022-12-18T08:11:28;95811.63;;;9.29;50.87
27958;BME280;15295;42.658;23.374;2022-12-18T08:13:54;95813.50;;;9.25;50.98
27958;BME280;15295;42.658;23.374;2022-12-18T08:16:21;95802.16;;;9.23;50.96
27958;BME280;15295;42.658;23.374;2022-12-18T08:18:47;95821.09;;;9.35;50.84
27958;BME280;15295;42.658;23.374;2022-12-18T08:21:23;95821.75;;;9.28;50.61
27958;BME280;15295;42.658;23.374;2022-12-18T08:23:50;95827.28;;;9.32;50.92
27958;BME280;15295;42.658;23.374;2022-12-18T08:26:16;95822.09;;;9.27;50.42
27958;BME280;15295;42.658;23.374;2022-12-18T08:28:41;95828.13;;;9.17;50.05
27958;BME280;15295;42.658;23.374;2022-12-18T08:31:09;95837.97;;;9.21;50.03
27958;BME280;15295;42.658;23.374;2022-12-18T08:33:40;95816.47;;;9.01;50.38
27958;BME280;15295;42.658;23.374;2022-12-18T08:36:06;95840.81;;;9.09;50.46
27958;BME280;15295;42.658;23.374;2022-12-18T08:38:35;95816.41;;;8.97;50.39
27958;BME280;15295;42.658;23.374;2022-12-18T08:41:07;95842.84;;;9.12;50.25
27958;BME280;15295;42.658;23.374;2022-12-18T08:43:37;95819.56;;;8.99;50.66
27958;BME280;15295;42.658;23.374;2022-12-18T08:46:22;95851.03;;;9.12;50.48
27958;BME280;15295;42.658;23.374;2022-12-18T08:49:03;95843.41;;;9.02;50.28
27958;BME280;15295;42.658;23.374;2022-12-18T08:51:40;95814.94;;;8.84;50.41
27958;BME280;15295;42.658;23.374;2022-12-18T08:54:12;95834.06;;;9.03;50.23
27958;BME280;15295;42.658;23.374;2022-12-18T08:59:18;95852.16;;;9.11;50.02
27958;BME280;15295;42.658;23.374;2022-12-18T09:01:47;95845.47;;;9.09;50.09
27958;BME280;15295;42.658;23.374;2022-12-18T09:04:12;95840.38;;;9.07;49.62
27958;BME280;15295;42.658;23.374;2022-12-18T09:06:39;95844.78;;;9.12;49.41
27958;BME280;15295;42.658;23.374;2022-12-18T09:09:11;95813.81;;;8.85;49.27
27958;BME280;15295;42.658;23.374;2022-12-18T09:11:44;95789.75;;;8.72;48.77
27958;BME280;15295;42.658;23.374;2022-12-18T09:16:49;95815.19;;;8.95;48.53
27958;BME280;15295;42.658;23.374;2022-12-18T09:19:16;95822.72;;;9.01;48.62
27958;BME280;15295;42.658;23.374;2022-12-18T09:21:42;95800.41;;;8.77;48.64
27958;BME280;15295;42.658;23.374;2022-12-18T09:24:34;95846.28;;;9.09;48.71
27958;BME280;15295;42.658;23.374;2022-12-18T09:27:04;95843.22;;;9.11;48.73
27958;BME280;15295;42.658;23.374;2022-12-18T09:29:29;95842.22;;;9.19;48.80
27958;BME280;15295;42.658;23.374;2022-12-18T09:31:57;95809.97;;;9.05;48.63
27958;BME280;15295;42.658;23.374;2022-12-18T09:34:22;95827.78;;;9.18;48.55
27958;BME280;15295;42.658;23.374;2022-12-18T09:36:48;95847.25;;;9.36;48.54
27958;BME280;15295;42.658;23.374;2022-12-18T09:39:14;95833.81;;;9.27;48.49
27958;BME280;15295;42.658;23.374;2022-12-18T09:41:43;95851.63;;;9.41;48.23
27958;BME280;15295;42.658;23.374;2022-12-18T09:44:23;95841.25;;;9.30;47.66
27958;BME280;15295;42.658;23.374;2022-12-18T09:47:22;95857.00;;;9.37;47.48
27958;BME280;15295;42.658;23.374;2022-12-18T09:49:51;95848.31;;;9.31;47.15
27958;BME280;15295;42.658;23.374;2022-12-18T09:52:32;95850.41;;;9.38;47.48
27958;BME280;15295;42.658;23.374;2022-12-18T09:55:04;95850.09;;;9.43;47.28
27958;BME280;15295;42.658;23.374;2022-12-18T09:57:35;95844.72;;;9.47;47.40
27958;BME280;15295;42.658;23.374;2022-12-18T10:00:17;95847.41;;;9.62;46.97
27958;BME280;15295;42.658;23.374;2022-12-18T10:02:44;95835.25;;;9.60;47.17
27958;BME280;15295;42.658;23.374;2022-12-18T10:05:13;95849.44;;;9.69;46.70
27958;BME280;15295;42.658;23.374;2022-12-18T10:07:52;95845.84;;;9.65;46.85
27958;BME280;15295;42.658;23.374;2022-12-18T10:10:33;95851.75;;;9.67;45.87
27958;BME280;15295;42.658;23.374;2022-12-18T10:16:12;95851.97;;;9.58;46.09
27958;BME280;15295;42.658;23.374;2022-12-18T10:18:54;95852.47;;;9.64;45.95
27958;BME280;15295;42.658;23.374;2022-12-18T10:22:01;95839.69;;;9.68;46.39
27958;BME280;15295;42.658;23.374;2022-12-18T10:27:16;95851.19;;;9.77;45.87
27958;BME280;15295;42.658;23.374;2022-12-18T10:29:45;95843.50;;;9.63;46.10
27958;BME280;15295;42.658;23.374;2022-12-18T10:32:30;95853.13;;;9.76;45.57
27958;BME280;15295;42.658;23.374;2022-12-18T10:34:57;95836.97;;;9.68;45.58
27958;BME280;15295;42.658;23.374;2022-12-18T10:37:25;95844.44;;;9.71;45.46
27958;BME280;15295;42.658;23.374;2022-12-18T10:40:11;95840.53;;;9.72;45.92
27958;BME280;15295;42.658;23.374;2022-12-18T10:42:36;95844.56;;;9.78;46.03
27958;BME280;15295;42.658;23.374;2022-12-18T10:45:08;95828.72;;;9.64;46.11
27958;BME280;15295;42.658;23.374;2022-12-18T10:47:43;95820.94;;;9.66;46.10
27958;BME280;15295;42.658;23.374;2022-12-18T10:50:19;95835.28;;;9.82;46.34
27958;BME280;15295;42.658;23.374;2022-12-18T10:52:55;95838.38;;;9.81;46.31
27958;BME280;15295;42.658;23.374;2022-12-18T10:55:22;95824.59;;;9.74;46.52
27958;BME280;15295;42.658;23.374;2022-12-18T10:57:52;95814.25;;;9.83;46.37
27958;BME280;15295;42.658;23.374;2022-12-18T11:00:30;95775.22;;;9.60;46.34
27958;BME280;15295;42.658;23.374;2022-12-18T11:02:56;95808.22;;;9.74;46.23
27958;BME280;15295;42.658;23.374;2022-12-18T11:05:33;95836.13;;;9.86;46.17
27958;BME280;15295;42.658;23.374;2022-12-18T11:08:05;95818.06;;;9.78;46.05
27958;BME280;15295;42.658;23.374;2022-12-18T11:29:39;95839.50;;;9.99;44.14
27958;BME280;15295;42.658;23.374;2022-12-18T11:40:59;95847.19;;;10.13;44.26
27958;BME280;15295;42.658;23.374;2022-12-18T11:47:10;95779.16;;;9.62;44.15
27958;BME280;15295;42.658;23.374;2022-12-18T11:49:42;95793.34;;;9.71;44.07
27958;BME280;15295;42.658;23.374;2022-12-18T11:54:46;95858.59;;;10.18;44.24
27958;BME280;15295;42.658;23.374;2022-12-18T11:57:42;95838.56;;;10.11;44.47
27958;BME280;15295;42.658;23.374;2022-12-18T12:00:22;95850.91;;;10.24;44.46
27958;BME280;15295;42.658;23.374;2022-12-18T12:16:52;95854.78;;;10.23;43.90
27958;BME280;15295;42.658;23.374;2022-12-18T12:24:45;95860.50;;;10.37;43.88
27958;BME280;15295;42.658;23.374;2022-12-18T12:27:30;95846.94;;;10.21;44.23
27958;BME280;15295;42.658;23.374;2022-12-18T12:35:37;95862.56;;;10.43;44.12
27958;BME280;15295;42.658;23.374;2022-12-18T12:38:10;95858.25;;;10.42;44.03
27958;BME280;15295;42.658;23.374;2022-12-18T12:40:51;95867.78;;;10.52;43.57
27958;BME280;15295;42.658;23.374;2022-12-18T12:46:41;95834.75;;;10.38;43.83
27958;BME280;15295;42.658;23.374;2022-12-18T12:49:21;95851.00;;;10.53;43.77
27958;BME280;15295;42.658;23.374;2022-12-18T12:52:32;95858.53;;;10.60;43.94
27958;BME280;15295;42.658;23.374;2022-12-18T12:54:56;95867.00;;;10.51;43.67
27958;BME280;15295;42.658;23.374;2022-12-18T12:57:31;95866.72;;;10.37;44.18
27958;BME280;15295;42.658;23.374;2022-12-18T13:00:13;95873.19;;;10.48;44.00
27958;BME280;15295;42.658;23.374;2022-12-18T13:05:54;95880.00;;;10.58;44.23
27958;BME280;15295;42.658;23.374;2022-12-18T13:08:24;95880.72;;;10.55;44.41
27958;BME280;15295;42.658;23.374;2022-12-18T13:10:53;95863.41;;;10.47;44.00
27958;BME280;15295;42.658;23.374;2022-12-18T13:13:57;95858.53;;;10.37;44.41
27958;BME280;15295;42.658;23.374;2022-12-18T13:16:24;95823.53;;;10.01;44.15
27958;BME280;15295;42.658;23.374;2022-12-18T13:18:56;95866.56;;;10.27;44.33
27958;BME280;15295;42.658;23.374;2022-12-18T13:34:36;95880.81;;;10.17;44.44
27958;BME280;15295;42.658;23.374;2022-12-18T13:39:59;95882.75;;;10.16;44.26
27958;BME280;15295;42.658;23.374;2022-12-18T13:42:40;95869.84;;;10.13;44.30
27958;BME280;15295;42.658;23.374;2022-12-18T13:48:26;95903.19;;;10.22;44.32
27958;BME280;15295;42.658;23.374;2022-12-18T13:50:56;95922.84;;;10.31;44.39
27958;BME280;15295;42.658;23.374;2022-12-18T13:53:29;95899.88;;;10.13;44.75
27958;BME280;15295;42.658;23.374;2022-12-18T13:55:56;95919.13;;;10.20;44.74
27958;BME280;15295;42.658;23.374;2022-12-18T13:58:22;95904.59;;;10.16;45.01
27958;BME280;15295;42.658;23.374;2022-12-18T14:00:47;95920.84;;;10.28;44.86
27958;BME280;15295;42.658;23.374;2022-12-18T14:03:22;95927.16;;;10.32;44.60
27958;BME280;15295;42.658;23.374;2022-12-18T14:06:03;95933.47;;;10.36;44.67
27958;BME280;15295;42.658;23.374;2022-12-18T14:08:41;95931.34;;;10.26;44.77
27958;BME280;15295;42.658;23.374;2022-12-18T14:11:19;95896.78;;;10.15;44.84
27958;BME280;15295;42.658;23.374;2022-12-18T14:13:46;95892.81;;;10.12;44.61
27958;BME280;15295;42.658;23.374;2022-12-18T14:16:16;95904.69;;;10.20;44.63
27958;BME280;15295;42.658;23.374;2022-12-18T14:18:49;95933.91;;;10.38;44.60
27958;BME280;15295;42.658;23.374;2022-12-18T14:21:24;95943.25;;;10.37;44.30
27958;BME280;15295;42.658;23.374;2022-12-18T14:24:23;95946.72;;;10.34;44.13
27958;BME280;15295;42.658;23.374;2022-12-18T14:26:50;95862.53;;;9.79;44.03
27958;BME280;15295;42.658;23.374;2022-12-18T14:29:27;95902.88;;;10.08;43.82
27958;BME280;15295;42.658;23.374;2022-12-18T14:32:18;95921.75;;;10.13;43.61
27958;BME280;15295;42.658;23.374;2022-12-18T14:35:13;95923.25;;;10.11;43.39
27958;BME280;15295;42.658;23.374;2022-12-18T14:41:20;95885.66;;;9.85;43.50
27958;BME280;15295;42.658;23.374;2022-12-18T14:44:43;95943.00;;;10.23;43.41
27958;BME280;15295;42.658;23.374;2022-12-18T14:47:19;95945.44;;;10.28;43.28
27958;BME280;15295;42.658;23.374;2022-12-18T14:50:03;95909.84;;;10.05;42.98
27958;BME280;15295;42.658;23.374;2022-12-18T15:08:02;95932.34;;;9.99;42.06
27958;BME280;15295;42.658;23.374;2022-12-18T15:10:32;95956.94;;;10.18;41.92
27958;BME280;15295;42.658;23.374;2022-12-18T15:13:09;95903.81;;;9.77;41.94
27958;BME280;15295;42.658;23.374;2022-12-18T15:18:52;95933.78;;;9.93;41.92
27958;BME280;15295;42.658;23.374;2022-12-18T15:29:24;95908.94;;;9.60;40.96
27958;BME280;15295;42.658;23.374;2022-12-18T15:39:52;95932.66;;;9.75;41.17
27958;BME280;15295;42.658;23.374;2022-12-18T15:50:20;95923.19;;;9.34;41.27
27958;BME280;15295;42.658;23.374;2022-12-18T15:53:01;95957.97;;;9.56;41.20
27958;BME280;15295;42.658;23.374;2022-12-18T15:56:02;95944.97;;;9.50;41.05
27958;BME280;15295;42.658;23.374;2022-12-18T15:58:58;95970.47;;;9.57;41.19
27958;BME280;15295;42.658;23.374;2022-12-18T16:04:46;96021.59;;;9.76;41.62
27958;BME280;15295;42.658;23.374;2022-12-18T16:07:15;95988.63;;;9.50;41.59
27958;BME280;15295;42.658;23.374;2022-12-18T16:09:57;96033.22;;;9.73;41.64
27958;BME280;15295;42.658;23.374;2022-12-18T16:12:58;95993.31;;;9.49;41.53
27958;BME280;15295;42.658;23.374;2022-12-18T16:16:02;95968.28;;;9.28;41.73
27958;BME280;15295;42.658;23.374;2022-12-18T16:18:54;95987.00;;;9.29;41.94
27958;BME280;15295;42.658;23.374;2022-12-18T16:28:04;96008.28;;;9.24;42.70